Time;durP1;ratioP1;P1;durP2;ratioP2;P2;SDS_P1;SDS_P2;PMS_P1;PMS_P2;Temp;Humidity;BMP_temperature;BMP_pressure;BME280_temperature;BME280_humidity;BME280_pressure;Samples;Min_cycle;Max_cycle;Signal;HPM_P1;HPM_P2
2021/11/17 02:28:17;;;;;;;102.85;25.33;;;;;;;4.40;100.00;101982.91;5263828;28;20040;-72
2021/11/17 02:31:12;;;;;;;109.40;29.20;;;;;;;4.29;100.00;101980.94;5281863;28;20035;-71
2021/11/17 02:33:55;;;;;;;100.05;26.23;;;;;;;4.15;100.00;101989.78;5286445;28;20116;-70
2021/11/17 02:36:39;;;;;;;111.00;24.35;;;;;;;4.04;100.00;101986.94;5286560;28;20378;-71
2021/11/17 02:39:24;;;;;;;98.13;25.37;;;;;;;3.96;100.00;101988.38;5286420;28;20033;-70
2021/11/17 02:42:17;;;;;;;110.97;27.05;;;;;;;3.90;100.00;101995.78;5286690;28;20401;-70
2021/11/17 02:45:13;;;;;;;110.85;28.20;;;;;;;3.83;100.00;101993.59;5286931;28;20491;-70
2021/11/17 02:48:14;;;;;;;124.60;27.88;;;;;;;3.80;100.00;102005.25;5274385;28;20027;-69
2021/11/17 02:50:58;;;;;;;124.78;27.45;;;;;;;3.85;100.00;102015.59;5286063;28;20020;-70
2021/11/17 02:53:36;;;;;;;118.75;26.73;;;;;;;3.89;100.00;102017.97;5285967;28;20035;-70
2021/11/17 02:56:20;;;;;;;117.78;28.38;;;;;;;3.99;100.00;102014.75;5286324;28;20020;-70
2021/11/17 02:59:03;;;;;;;107.97;26.88;;;;;;;4.04;100.00;102015.31;5285713;28;20093;-70
2021/11/17 03:01:35;;;;;;;115.07;27.70;;;;;;;4.07;100.00;102013.31;5285716;28;20035;-70
2021/11/17 03:04:18;;;;;;;117.03;28.30;;;;;;;4.10;100.00;102020.22;5285948;28;20027;-69
2021/11/17 03:07:00;;;;;;;133.13;27.70;;;;;;;4.16;100.00;102028.66;5285649;28;20156;-71
2021/11/17 03:09:56;;;;;;;118.32;27.88;;;;;;;4.21;100.00;102027.53;5285316;28;20027;-70
2021/11/17 03:12:41;;;;;;;115.60;26.75;;;;;;;4.25;100.00;102026.38;5285522;28;20011;-70
2021/11/17 03:15:12;;;;;;;;;;;;;;;4.28;100.00;102032.38;5273297;28;20122;-70
2021/11/17 03:17:44;;;;;;;114.07;25.35;;;;;;;4.30;100.00;102025.16;5285531;28;19990;-72
2021/11/17 03:20:21;;;;;;;112.10;26.58;;;;;;;4.34;100.00;102028.47;5285991;28;20039;-70
2021/11/17 03:23:06;;;;;;;104.82;26.33;;;;;;;4.37;100.00;102026.47;5285671;28;20020;-70
2021/11/17 03:25:43;;;;;;;107.63;26.83;;;;;;;4.44;100.00;102023.44;5286013;28;20027;-71
2021/11/17 03:28:32;;;;;;;110.45;25.48;;;;;;;4.45;100.00;102028.63;5285273;28;20031;-70
2021/11/17 03:31:43;;;;;;;94.68;24.75;;;;;;;4.49;100.00;102018.66;5284950;28;20372;-70
2021/11/17 03:34:48;;;;;;;120.97;25.27;;;;;;;4.51;100.00;102012.28;5284558;28;20019;-71
2021/11/17 03:37:23;;;;;;;108.93;25.10;;;;;;;4.57;100.00;102011.06;5284653;28;20111;-70
2021/11/17 03:40:21;;;;;;;101.30;24.67;;;;;;;4.60;100.00;102002.88;5285491;28;20039;-71
2021/11/17 03:42:58;;;;;;;92.63;24.38;;;;;;;4.62;100.00;102007.16;5285854;28;20104;-70
2021/11/17 03:45:36;;;;;;;101.38;24.13;;;;;;;4.63;100.00;102011.50;5285315;28;20372;-71
2021/11/17 03:48:26;;;;;;;104.10;24.25;;;;;;;4.66;100.00;102015.75;5262476;28;20034;-70
2021/11/17 03:51:14;;;;;;;97.25;23.80;;;;;;;4.70;100.00;102016.44;5272356;28;20077;-70
2021/11/17 03:54:17;;;;;;;94.88;23.33;;;;;;;4.71;100.00;102012.81;5284802;28;20011;-70
2021/11/17 03:57:10;;;;;;;98.22;23.85;;;;;;;4.73;100.00;102016.25;5269837;28;20027;-72
2021/11/17 03:59:56;;;;;;;95.05;23.67;;;;;;;4.76;100.00;102013.34;5285244;28;20112;-71
2021/11/17 04:03:14;;;;;;;91.95;28.80;;;;;;;4.81;100.00;102021.88;5273250;28;20031;-70
2021/11/17 04:06:20;;;;;;;109.20;25.88;;;;;;;4.83;100.00;102026.16;5273788;28;20023;-70
2021/11/17 04:08:56;;;;;;;101.90;24.48;;;;;;;4.85;100.00;102023.41;5271850;28;20043;-71
2021/11/17 04:11:33;;;;;;;99.22;24.02;;;;;;;4.90;100.00;102021.28;5284650;28;20031;-70
2021/11/17 04:14:18;;;;;;;101.15;25.95;;;;;;;4.91;100.00;102028.31;5284804;28;20028;-71
2021/11/17 04:17:11;;;;;;;95.53;24.80;;;;;;;4.93;100.00;102021.94;5272166;28;20034;-71
2021/11/17 04:19:54;;;;;;;96.20;24.25;;;;;;;4.94;100.00;102023.66;5284280;28;20026;-70
2021/11/17 04:22:47;;;;;;;108.50;28.00;;;;;;;4.97;100.00;102029.72;5284396;28;20108;-71
2021/11/17 04:25:33;;;;;;;113.60;26.00;;;;;;;4.99;100.00;102031.31;5283990;28;20030;-71
2021/11/17 04:28:48;;;;;;;96.40;24.52;;;;;;;5.01;100.00;102026.75;5284190;28;20539;-71
2021/11/17 04:31:47;;;;;;;100.55;25.55;;;;;;;5.04;100.00;102026.56;5262161;28;20038;-70
2021/11/17 04:34:35;;;;;;;111.75;26.05;;;;;;;5.07;100.00;102017.50;5281305;28;20508;-71
2021/11/17 04:37:12;;;;;;;100.97;26.70;;;;;;;5.10;100.00;102022.63;5284327;28;20051;-72
2021/11/17 04:39:59;;;;;;;98.85;25.20;;;;;;;5.12;100.00;102026.03;5284186;28;20480;-71
2021/11/17 04:42:54;;;;;;;120.88;28.00;;;;;;;5.13;100.00;102017.13;5284534;28;20118;-71
2021/11/17 04:45:27;;;;;;;105.40;26.58;;;;;;;5.13;100.00;102015.31;5283484;28;20077;-71
2021/11/17 04:48:18;;;;;;;115.47;26.85;;;;;;;5.16;100.00;102004.44;5284170;28;20252;-72
2021/11/17 04:51:02;;;;;;;111.28;27.17;;;;;;;5.19;100.00;102006.06;5270600;28;20492;-71
2021/11/17 04:54:00;;;;;;;108.03;25.75;;;;;;;5.22;100.00;101995.22;5284116;28;20504;-71
2021/11/17 04:56:34;;;;;;;113.97;28.23;;;;;;;5.22;100.00;101979.25;5262201;28;20614;-71
2021/11/17 04:59:10;;;;;;;111.43;28.58;;;;;;;5.18;100.00;101967.97;5283587;28;20042;-71
2021/11/17 05:01:48;;;;;;;112.93;28.52;;;;;;;5.14;100.00;101985.09;5283922;28;20510;-71
2021/11/17 05:04:27;;;;;;;124.53;30.15;;;;;;;5.11;100.00;102000.38;5284296;28;20062;-72
2021/11/17 05:07:12;;;;;;;126.13;30.08;;;;;;;5.08;100.00;101996.16;5283293;28;20047;-71
2021/11/17 05:09:52;;;;;;;;;;;;;;;5.11;100.00;101998.59;5284196;28;20400;-71
2021/11/17 05:12:39;;;;;;;129.35;28.95;;;;;;;5.13;100.00;101999.34;5284187;28;20372;-71
2021/11/17 05:15:18;;;;;;;136.93;31.30;;;;;;;5.18;100.00;102004.38;5270750;28;20537;-71
2021/11/17 05:18:07;;;;;;;133.57;31.45;;;;;;;5.22;100.00;102008.53;5284006;28;20035;-71
2021/11/17 05:21:09;;;;;;;133.25;30.58;;;;;;;5.27;100.00;102006.41;5284570;28;20029;-72
2021/11/17 05:23:57;;;;;;;131.52;31.25;;;;;;;5.33;100.00;101998.00;5274139;28;20476;-72
2021/11/17 05:26:34;;;;;;;141.45;32.97;;;;;;;5.33;100.00;101994.50;5266226;28;20031;-72
2021/11/17 05:29:12;;;;;;;141.10;31.15;;;;;;;5.34;100.00;101991.72;5283476;28;20024;-72
2021/11/17 05:31:50;;;;;;;139.70;31.55;;;;;;;5.39;100.00;101978.09;5284858;28;20024;-72
2021/11/17 05:34:41;;;;;;;118.72;30.80;;;;;;;5.39;100.00;101968.31;5283471;28;20039;-71
2021/11/17 05:37:24;;;;;;;124.90;29.95;;;;;;;5.42;100.00;101968.09;5285415;28;20032;-72
2021/11/17 05:40:11;;;;;;;117.30;30.38;;;;;;;5.40;100.00;101963.84;5283391;28;20020;-72
2021/11/17 05:43:14;;;;;;;123.15;29.85;;;;;;;5.37;100.00;101966.69;5282642;28;20028;-70
2021/11/17 05:45:57;;;;;;;118.82;28.92;;;;;;;5.40;100.00;101971.81;5283172;28;20016;-71
2021/11/17 05:48:54;;;;;;;121.75;28.73;;;;;;;5.38;100.00;101971.09;5282594;28;20028;-71
2021/11/17 05:51:25;;;;;;;;;;;;;;;5.39;100.00;101986.94;5284526;28;20448;-71
2021/11/17 05:54:20;;;;;;;120.45;27.67;;;;;;;5.40;100.00;101980.66;5282880;28;20341;-71
2021/11/17 05:56:57;;;;;;;124.35;29.60;;;;;;;5.42;100.00;101981.41;5283946;28;20099;-71
2021/11/17 05:59:53;;;;;;;115.82;28.73;;;;;;;5.44;100.00;101986.63;5286908;28;20030;-71
2021/11/17 06:02:53;;;;;;;133.20;30.90;;;;;;;5.47;100.00;101989.06;5274398;28;20114;-72
2021/11/17 06:06:00;;;;;;;125.03;28.08;;;;;;;5.49;100.00;101992.47;5286381;28;20055;-73
2021/11/17 06:09:08;;;;;;;125.22;29.42;;;;;;;5.54;100.00;102000.16;5286755;28;20027;-72
2021/11/17 06:11:43;;;;;;;110.93;27.50;;;;;;;5.56;100.00;101993.75;5268020;28;20542;-72
2021/11/17 06:14:18;;;;;;;123.75;28.45;;;;;;;5.58;100.00;101989.19;5286363;28;20083;-72
2021/11/17 06:16:53;;;;;;;115.97;28.70;;;;;;;5.62;100.00;102000.47;5273288;28;20023;-72
2021/11/17 06:19:27;;;;;;;133.88;31.52;;;;;;;5.62;100.00;102000.47;5286361;28;20062;-71
2021/11/17 06:21:58;;;;;;;118.70;29.83;;;;;;;5.63;100.00;101996.88;5285807;28;20480;-72
2021/11/17 06:24:29;;;;;;;106.70;29.08;;;;;;;5.64;100.00;102004.72;5267937;28;20097;-72
2021/11/17 06:27:03;;;;;;;123.18;30.63;;;;;;;5.66;100.00;102016.13;5286156;28;20052;-71
2021/11/17 06:29:37;;;;;;;116.97;28.48;;;;;;;5.68;100.00;102016.88;5286040;28;20024;-72
2021/11/17 06:32:10;;;;;;;115.75;28.80;;;;;;;5.70;100.00;102008.78;5285983;28;20094;-73
2021/11/17 06:34:46;;;;;;;121.38;28.05;;;;;;;5.74;100.00;102020.94;5285943;28;20031;-71
2021/11/17 06:37:20;;;;;;;113.70;28.35;;;;;;;5.74;100.00;102018.25;5285805;28;20019;-71
2021/11/17 06:39:54;;;;;;;131.50;29.63;;;;;;;5.75;100.00;102022.63;5286412;28;20043;-73
2021/11/17 06:42:31;;;;;;;124.35;30.27;;;;;;;5.76;100.00;102019.00;5286125;28;20059;-71
2021/11/17 06:45:13;;;;;;;111.97;28.08;;;;;;;5.79;100.00;102025.94;5285776;28;20027;-71
2021/11/17 06:47:44;;;;;;;118.72;29.75;;;;;;;5.80;100.00;102025.81;5286508;28;20019;-71
2021/11/17 06:50:17;;;;;;;117.68;28.55;;;;;;;5.80;100.00;102032.97;5286683;28;20308;-71
2021/11/17 06:52:48;;;;;;;110.53;29.42;;;;;;;5.82;100.00;102029.22;5286004;28;20076;-71
2021/11/17 06:55:19;;;;;;;128.95;28.35;;;;;;;5.85;100.00;102036.16;5286017;28;20023;-72
2021/11/17 06:57:50;;;;;;;119.30;28.58;;;;;;;5.88;100.00;102038.63;5285656;28;20034;-71
2021/11/17 07:00:24;;;;;;;107.63;27.23;;;;;;;5.90;100.00;102031.38;5286153;28;20480;-73
2021/11/17 07:02:55;;;;;;;121.75;30.90;;;;;;;5.96;100.00;102028.28;5285523;28;20131;-71
2021/11/17 07:05:25;;;;;;;122.10;29.05;;;;;;;5.96;100.00;102026.47;5285245;28;20020;-71
2021/11/17 07:07:59;;;;;;;126.05;28.83;;;;;;;6.01;100.00;102038.63;5283840;28;20115;-71
2021/11/17 07:10:31;;;;;;;119.43;29.20;;;;;;;6.02;100.00;102045.66;5284991;28;20416;-72
2021/11/17 07:13:08;;;;;;;114.32;28.42;;;;;;;6.05;100.00;102053.44;5285268;28;20019;-71
2021/11/17 07:15:39;;;;;;;118.07;30.67;;;;;;;6.06;100.00;102058.66;5285344;28;20511;-72
2021/11/17 07:18:09;;;;;;;117.32;28.70;;;;;;;6.09;100.00;102054.94;5284561;28;20278;-72
2021/11/17 07:20:41;;;;;;;111.43;27.88;;;;;;;6.12;100.00;102060.88;5285590;28;20268;-72
2021/11/17 07:23:14;;;;;;;130.05;32.25;;;;;;;6.16;100.00;102070.38;5285734;28;20035;-72
2021/11/17 07:25:45;;;;;;;124.82;27.83;;;;;;;6.19;100.00;102072.84;5285719;28;20019;-72
2021/11/17 07:28:16;;;;;;;114.93;29.15;;;;;;;6.21;100.00;102068.22;5285104;28;20038;-72
2021/11/17 07:30:46;;;;;;;117.88;28.85;;;;;;;6.25;100.00;102079.53;5285002;28;20016;-72
2021/11/17 07:33:17;;;;;;;116.15;31.50;;;;;;;6.29;100.00;102078.38;5284823;28;20365;-72
2021/11/17 07:35:50;;;;;;;111.20;28.13;;;;;;;6.32;100.00;102067.47;5285155;28;20499;-73
2021/11/17 07:38:23;;;;;;;112.88;28.23;;;;;;;6.37;100.00;102069.81;5284743;28;20387;-72
2021/11/17 07:40:54;;;;;;;110.35;30.85;;;;;;;6.40;100.00;102070.47;5284490;28;20034;-72
2021/11/17 07:43:27;;;;;;;114.05;29.25;;;;;;;6.45;100.00;102075.47;5279945;28;20421;-73
2021/11/17 07:45:58;;;;;;;104.63;27.35;;;;;;;6.49;100.00;102068.97;5266064;28;20027;-72
2021/11/17 07:48:31;;;;;;;110.45;27.50;;;;;;;6.50;100.00;102073.31;5296155;27;20024;-72
2021/11/17 07:51:02;;;;;;;114.72;27.55;;;;;;;6.54;100.00;102080.13;5282684;28;20026;-72
2021/11/17 07:53:33;;;;;;;117.30;29.05;;;;;;;6.57;100.00;102071.91;5282608;28;20117;-72
2021/11/17 07:56:05;;;;;;;108.15;28.38;;;;;;;6.60;100.00;102074.38;5283334;28;20050;-72
2021/11/17 07:58:40;;;;;;;117.93;29.10;;;;;;;6.65;100.00;102076.69;5283020;28;20035;-72
2021/11/17 08:01:13;;;;;;;117.72;29.23;;;;;;;6.66;100.00;102073.06;5283027;28;20027;-72
2021/11/17 08:03:46;;;;;;;108.38;28.02;;;;;;;6.69;100.00;102083.53;5283900;28;20031;-72
2021/11/17 08:06:20;;;;;;;126.85;29.17;;;;;;;6.71;100.00;102089.59;5283501;28;20384;-72
2021/11/17 08:08:52;;;;;;;133.65;31.63;;;;;;;6.77;100.00;102086.47;5283866;28;20129;-72
2021/11/17 08:11:23;;;;;;;111.47;28.45;;;;;;;6.79;100.00;102089.88;5283814;28;20016;-72
2021/11/17 08:13:54;;;;;;;129.50;28.63;;;;;;;6.84;100.00;102089.56;5284001;28;20657;-72
2021/11/17 08:16:24;;;;;;;123.68;29.83;;;;;;;6.88;100.00;102088.38;5283656;28;20289;-72
2021/11/17 08:18:55;;;;;;;117.97;29.17;;;;;;;6.95;100.00;102085.13;5283155;28;20054;-72
2021/11/17 08:21:25;;;;;;;119.07;30.85;;;;;;;7.01;100.00;102092.69;5283658;28;20297;-72
2021/11/17 08:23:56;;;;;;;133.60;31.48;;;;;;;7.11;100.00;102100.84;5284602;28;20023;-72
2021/11/17 08:26:27;;;;;;;130.15;30.95;;;;;;;7.13;100.00;102106.06;5283586;28;20606;-72
2021/11/17 08:28:58;;;;;;;181.27;47.10;;;;;;;7.11;100.00;102105.34;5283205;28;20069;-72
2021/11/17 08:31:29;;;;;;;138.85;36.78;;;;;;;7.10;100.00;102109.00;5283930;28;20019;-72
2021/11/17 08:34:00;;;;;;;206.27;57.60;;;;;;;7.15;100.00;102110.34;5283472;28;20424;-72
2021/11/17 08:36:31;;;;;;;163.38;46.58;;;;;;;7.17;100.00;102120.91;5283920;28;20111;-72
2021/11/17 08:39:03;;;;;;;199.65;53.63;;;;;;;7.15;100.00;102117.50;5283668;28;20034;-72
2021/11/17 08:41:33;;;;;;;138.65;32.95;;;;;;;7.19;100.00;102113.66;5283563;28;20072;-72
2021/11/17 08:44:04;;;;;;;132.15;31.08;;;;;;;7.21;100.00;102112.56;5283975;28;20491;-72
2021/11/17 08:46:35;;;;;;;132.50;32.92;;;;;;;7.25;100.00;102119.38;5283968;28;20024;-72
2021/11/17 08:49:06;;;;;;;147.57;33.30;;;;;;;7.18;100.00;102118.16;5283135;28;20555;-72
2021/11/17 08:51:36;;;;;;;138.55;31.52;;;;;;;7.16;100.00;102108.53;5283384;28;20051;-72
2021/11/17 08:54:07;;;;;;;139.98;32.40;;;;;;;7.19;100.00;102122.50;5283048;28;20373;-72
2021/11/17 08:56:38;;;;;;;143.43;31.27;;;;;;;7.21;100.00;102125.91;5283421;28;20495;-72
2021/11/17 08:59:08;;;;;;;133.68;30.33;;;;;;;7.16;100.00;102129.88;5282891;28;20028;-72
2021/11/17 09:01:39;;;;;;;138.98;31.52;;;;;;;7.18;100.00;102133.31;5283116;28;20084;-72
2021/11/17 09:04:09;;;;;;;131.63;33.05;;;;;;;7.21;100.00;102138.41;5283248;28;20032;-72
2021/11/17 09:06:40;;;;;;;137.38;32.75;;;;;;;7.19;100.00;102135.00;5282665;28;20023;-72
2021/11/17 09:09:11;;;;;;;133.45;30.55;;;;;;;7.20;100.00;102136.69;5282814;28;20306;-72
2021/11/17 09:11:41;;;;;;;130.45;32.53;;;;;;;7.18;100.00;102149.31;5283061;28;20342;-71
2021/11/17 09:14:13;;;;;;;130.10;32.20;;;;;;;7.20;100.00;102142.03;5282556;28;20118;-71
2021/11/17 09:16:43;;;;;;;138.85;32.42;;;;;;;7.29;100.00;102146.72;5282897;28;20487;-72
2021/11/17 09:19:14;;;;;;;142.57;31.52;;;;;;;7.39;100.00;102152.22;5281995;28;20256;-72
2021/11/17 09:21:46;;;;;;;128.45;29.83;;;;;;;7.46;100.00;102148.13;5282899;28;20115;-72
2021/11/17 09:24:19;;;;;;;124.80;29.83;;;;;;;7.52;100.00;102155.66;5283759;28;20032;-71
2021/11/17 09:26:52;;;;;;;264.42;85.40;;;;;;;7.52;100.00;102148.50;5283668;28;20031;-72
2021/11/17 09:29:23;;;;;;;147.57;33.42;;;;;;;7.52;100.00;102147.66;5282549;28;20034;-72
2021/11/17 09:31:54;;;;;;;143.48;32.70;;;;;;;7.50;100.00;102145.09;5266816;28;20460;-72
2021/11/17 09:34:24;;;;;;;144.13;38.10;;;;;;;7.56;100.00;102146.47;5287239;28;20035;-71
2021/11/17 09:36:55;;;;;;;139.52;32.22;;;;;;;7.60;100.00;102142.59;5287283;28;20024;-72
2021/11/17 09:39:26;;;;;;;142.35;32.97;;;;;;;7.66;100.00;102154.63;5286667;28;20217;-72
2021/11/17 09:41:57;;;;;;;143.57;31.13;;;;;;;7.67;100.00;102156.34;5286388;28;20024;-72
2021/11/17 09:44:33;;;;;;;112.53;30.45;;;;;;;7.70;100.00;102162.31;5286993;28;20019;-72
2021/11/17 09:47:07;;;;;;;133.93;34.58;;;;;;;7.66;100.00;102171.50;5286821;28;20024;-71
2021/11/17 09:49:48;;;;;;;129.00;30.58;;;;;;;7.67;100.00;102169.69;5286754;28;20020;-72
2021/11/17 09:52:23;;;;;;;118.97;31.48;;;;;;;7.66;100.00;102168.84;5286721;28;20019;-72
2021/11/17 09:55:16;;;;;;;141.02;31.83;;;;;;;7.77;100.00;102171.53;5286874;28;20023;-72
2021/11/17 09:57:51;;;;;;;115.53;29.65;;;;;;;7.84;100.00;102177.31;5286733;28;20038;-72
2021/11/17 10:00:29;;;;;;;133.93;29.58;;;;;;;7.97;100.00;102167.38;5287044;28;20051;-72
2021/11/17 10:03:12;;;;;;;117.18;29.00;;;;;;;8.11;100.00;102173.47;5286604;28;20528;-72
2021/11/17 10:06:17;;;;;;;124.03;28.92;;;;;;;8.16;100.00;102173.97;5286349;28;20058;-71
2021/11/17 10:11:25;;;;;;;;;;;;;;;8.37;100.00;102176.84;5286225;28;20028;-72
2021/11/17 10:14:20;;;;;;;95.78;25.77;;;;;;;8.35;100.00;102166.25;5267888;28;19918;-71
2021/11/17 10:16:52;;;;;;;117.25;30.95;;;;;;;8.36;100.00;102176.00;5274385;28;20609;-71
2021/11/17 10:19:33;;;;;;;103.80;29.50;;;;;;;8.44;100.00;102173.59;5285830;28;20038;-72
2021/11/17 10:22:07;;;;;;;95.43;28.80;;;;;;;8.41;100.00;102179.16;5286416;28;20484;-71
2021/11/17 10:24:49;;;;;;;87.43;27.35;;;;;;;8.41;100.00;102181.84;5286686;28;20300;-72
2021/11/17 10:27:24;;;;;;;88.07;26.00;;;;;;;8.41;100.00;102176.47;5264038;28;20103;-72
2021/11/17 10:29:57;;;;;;;90.47;27.93;;;;;;;8.46;100.00;102178.81;5285855;28;20782;-72
2021/11/17 10:32:41;;;;;;;92.50;26.88;;;;;;;8.44;100.00;102175.41;5286166;28;20020;-72
2021/11/17 10:35:19;;;;;;;94.00;25.70;;;;;;;8.42;100.00;102180.00;5285965;28;20085;-72
2021/11/17 10:38:01;;;;;;;89.47;27.02;;;;;;;8.41;100.00;102178.31;5285859;28;20022;-72
2021/11/17 10:40:45;;;;;;;78.97;25.65;;;;;;;8.40;100.00;102177.47;5286160;28;20503;-72
2021/11/17 10:43:30;;;;;;;91.10;26.73;;;;;;;8.41;100.00;102180.97;5285469;28;20645;-71
2021/11/17 10:46:09;;;;;;;79.50;26.77;;;;;;;8.40;100.00;102185.47;5286065;28;20027;-72
2021/11/17 10:48:50;;;;;;;87.05;28.33;;;;;;;8.39;100.00;102181.13;5285972;28;20027;-71
2021/11/17 10:51:24;;;;;;;82.85;26.30;;;;;;;8.38;100.00;102176.72;5285863;28;20046;-71
2021/11/17 10:53:56;;;;;;;88.95;26.45;;;;;;;8.41;100.00;102168.47;5285584;28;20073;-72
2021/11/17 10:56:29;;;;;;;86.45;28.08;;;;;;;8.54;100.00;102171.88;5285850;28;20023;-71
2021/11/17 10:59:01;;;;;;;92.70;27.70;;;;;;;8.66;100.00;102178.09;5284926;28;20027;-71
2021/11/17 11:01:37;;;;;;;85.57;28.05;;;;;;;8.71;100.00;102175.91;5285842;28;20329;-72
2021/11/17 11:04:15;;;;;;;88.38;28.90;;;;;;;8.70;100.00;102178.69;5285785;28;20561;-71
2021/11/17 11:06:54;;;;;;;85.72;29.15;;;;;;;8.68;100.00;102180.63;5285569;28;20555;-71
2021/11/17 11:09:32;;;;;;;91.78;27.92;;;;;;;8.71;100.00;102173.22;5284874;28;20023;-72
2021/11/17 11:12:04;;;;;;;97.38;30.33;;;;;;;8.71;100.00;102183.91;5285497;28;20027;-71
2021/11/17 11:14:43;;;;;;;91.50;28.85;;;;;;;8.82;100.00;102183.06;5285602;28;20032;-72
2021/11/17 11:17:27;;;;;;;86.82;32.95;;;;;;;8.90;100.00;102180.63;5285297;28;20015;-71
2021/11/17 11:20:28;;;;;;;91.93;29.98;;;;;;;8.88;100.00;102179.88;5284983;28;20032;-72
2021/11/17 11:23:02;;;;;;;99.22;36.72;;;;;;;8.85;100.00;102192.69;5285493;28;20030;-71
2021/11/17 11:25:49;;;;;;;76.47;27.30;;;;;;;8.75;100.00;102192.56;5285265;28;20028;-72
2021/11/17 11:28:19;;;;;;;79.43;27.02;;;;;;;8.72;100.00;102199.00;5273177;28;20446;-71
2021/11/17 11:31:13;;;;;;;86.68;29.45;;;;;;;8.73;100.00;102206.03;5285069;28;20358;-71
2021/11/17 11:34:09;;;;;;;86.70;31.77;;;;;;;8.73;100.00;102197.16;5284800;28;20038;-72
2021/11/17 11:36:48;;;;;;;98.07;30.40;;;;;;;8.75;100.00;102203.28;5284318;28;20503;-72
2021/11/17 11:39:19;;;;;;;80.70;28.55;;;;;;;8.86;100.00;102202.41;5284785;28;20032;-72
2021/11/17 11:42:08;;;;;;;84.20;28.88;;;;;;;8.88;100.00;102212.00;5284936;28;20024;-72
2021/11/17 11:44:43;;;;;;;92.82;28.75;;;;;;;9.00;100.00;102202.16;5284734;28;20502;-72
2021/11/17 11:47:13;;;;;;;88.90;28.95;;;;;;;9.11;100.00;102201.31;5284822;28;20365;-72
2021/11/17 11:49:49;;;;;;;81.05;28.30;;;;;;;9.19;100.00;102198.88;5284452;28;20464;-72
2021/11/17 11:52:20;;;;;;;;;;;;;;;9.20;100.00;102203.25;5262698;28;20064;-72
2021/11/17 11:54:51;;;;;;;83.13;27.38;;;;;;;9.25;100.00;102207.25;5277418;28;19966;-72
2021/11/17 11:57:24;;;;;;;88.93;32.65;;;;;;;9.29;100.00;102210.53;5283943;28;20055;-72
2021/11/17 12:00:12;;;;;;;126.70;55.72;;;;;;;9.33;100.00;102203.91;5284636;28;20043;-72
2021/11/17 12:02:58;;;;;;;104.63;37.70;;;;;;;9.35;100.00;102210.03;5284938;28;20499;-72
2021/11/17 12:05:40;;;;;;;83.90;29.77;;;;;;;9.35;100.00;102204.66;5285437;28;20085;-72
2021/11/17 12:08:13;;;;;;;78.53;27.98;;;;;;;9.43;100.00;102201.34;5284093;28;20035;-72
2021/11/17 12:10:49;;;;;;;78.93;29.73;;;;;;;9.51;100.00;102206.94;5284385;28;20027;-72
2021/11/17 12:13:24;;;;;;;78.82;28.83;;;;;;;9.57;100.00;102207.28;5284223;28;20023;-72
2021/11/17 12:16:18;;;;;;;78.88;28.52;;;;;;;9.66;100.00;102199.47;5284765;28;20039;-71
2021/11/17 12:18:57;;;;;;;81.25;29.45;;;;;;;9.73;100.00;102206.00;5283879;28;20149;-72
2021/11/17 12:21:33;;;;;;;73.15;29.17;;;;;;;9.81;100.00;102203.53;5284020;28;20399;-72
2021/11/17 12:24:11;;;;;;;75.82;27.42;;;;;;;9.84;100.00;102197.94;5283866;28;20491;-72
2021/11/17 12:26:45;;;;;;;72.18;28.48;;;;;;;9.83;100.00;102198.88;5284537;28;20140;-72
2021/11/17 12:29:20;;;;;;;70.32;27.05;;;;;;;9.88;100.00;102201.19;5283815;28;20026;-72
2021/11/17 12:32:10;;;;;;;63.20;25.50;;;;;;;9.98;100.00;102202.13;5284062;28;20015;-72
2021/11/17 12:34:53;;;;;;;74.63;25.50;;;;;;;10.03;100.00;102197.22;5284604;28;20388;-72
2021/11/17 12:37:33;;;;;;;74.50;27.25;;;;;;;9.97;100.00;102203.09;5283699;28;20047;-72
2021/11/17 12:40:07;;;;;;;65.40;26.45;;;;;;;9.93;100.00;102202.50;5283997;28;20032;-72
2021/11/17 12:42:49;;;;;;;79.47;27.45;;;;;;;9.99;100.00;102191.28;5284242;28;20492;-72
2021/11/17 12:45:32;;;;;;;66.60;26.40;;;;;;;10.01;100.00;102204.56;5283869;28;20492;-72
2021/11/17 12:48:07;;;;;;;71.35;28.65;;;;;;;10.13;100.00;102206.19;5284018;28;20143;-72
2021/11/17 12:50:45;;;;;;;71.82;29.52;;;;;;;10.13;100.00;102201.66;5283981;28;20032;-71
2021/11/17 12:53:20;;;;;;;64.82;26.70;;;;;;;10.12;100.00;102202.66;5284167;28;20020;-72
2021/11/17 12:55:58;;;;;;;70.47;27.35;;;;;;;10.10;100.00;102204.63;5284081;28;20032;-72
2021/11/17 12:58:34;;;;;;;70.85;26.73;;;;;;;10.04;100.00;102205.16;5283547;28;20053;-72
2021/11/17 13:01:10;;;;;;;68.85;26.73;;;;;;;10.03;100.00;102205.25;5283664;28;20031;-72
2021/11/17 13:03:47;;;;;;;70.93;25.60;;;;;;;10.02;100.00;102209.78;5284092;28;20031;-72
2021/11/17 13:06:22;;;;;;;63.40;24.75;;;;;;;9.99;100.00;102215.41;5282331;28;20076;-72
2021/11/17 13:09:23;;;;;;;64.50;25.33;;;;;;;9.96;100.00;102218.34;5283448;28;20020;-72
2021/11/17 13:12:09;;;;;;;63.97;25.50;;;;;;;10.01;100.00;102223.31;5283445;28;20027;-72
2021/11/17 13:14:46;;;;;;;74.22;27.33;;;;;;;10.01;100.00;102226.84;5279207;28;20084;-72
2021/11/17 13:17:22;;;;;;;74.53;25.75;;;;;;;10.07;100.00;102231.69;5283419;28;20019;-72
2021/11/17 13:19:56;;;;;;;64.15;26.88;;;;;;;10.08;100.00;102224.50;5283356;28;20027;-72
2021/11/17 13:22:39;;;;;;;76.47;26.70;;;;;;;10.15;100.00;102225.69;5282938;28;20013;-72
2021/11/17 13:25:13;;;;;;;67.70;26.20;;;;;;;10.19;100.00;102224.47;5282826;28;20423;-72
2021/11/17 13:27:47;;;;;;;66.65;25.67;;;;;;;10.22;100.00;102226.84;5283072;28;20028;-72
2021/11/17 13:30:31;;;;;;;72.00;26.20;;;;;;;10.26;100.00;102225.66;5284083;28;20074;-72
2021/11/17 13:33:20;;;;;;;65.22;26.55;;;;;;;10.28;100.00;102234.41;5283160;28;20507;-71
2021/11/17 13:36:04;;;;;;;75.40;27.13;;;;;;;10.38;100.00;102221.06;5283254;28;20062;-72
2021/11/17 13:38:38;;;;;;;64.55;25.65;;;;;;;10.49;100.00;102221.00;5282386;28;20020;-72
2021/11/17 13:41:09;;;;;;;62.72;26.30;;;;;;;10.55;100.00;102223.16;5282726;28;20028;-71
2021/11/17 13:43:39;;;;;;;68.07;24.60;;;;;;;10.56;100.00;102227.53;5282331;28;20047;-72
2021/11/17 13:46:14;;;;;;;68.40;24.88;;;;;;;10.59;100.00;102221.91;5282910;28;20106;-72
2021/11/17 13:48:45;;;;;;;66.15;24.52;;;;;;;10.59;100.00;102221.91;5282533;28;20096;-72
2021/11/17 13:51:20;;;;;;;62.42;26.00;;;;;;;10.60;100.00;102230.81;5283454;28;20429;-72
2021/11/17 13:53:51;;;;;;;63.30;24.60;;;;;;;10.62;100.00;102226.16;5283085;28;20031;-72
2021/11/17 13:56:32;;;;;;;66.63;23.95;;;;;;;10.60;100.00;102231.66;5283643;28;20035;-71
2021/11/17 13:59:02;;;;;;;53.10;22.02;;;;;;;10.56;100.00;102235.59;5270046;28;20035;-72
2021/11/17 14:01:33;;;;;;;57.88;21.67;;;;;;;10.51;100.00;102235.13;5282094;28;20468;-72
2021/11/17 14:04:04;;;;;;;48.25;19.65;;;;;;;10.42;100.00;102238.59;5282750;28;20024;-71
2021/11/17 14:06:35;;;;;;;53.85;18.77;;;;;;;10.27;100.00;102230.03;5282571;28;20054;-72
2021/11/17 14:09:05;;;;;;;53.85;18.48;;;;;;;10.21;100.00;102229.69;5282620;28;20098;-72
2021/11/17 14:11:36;;;;;;;52.90;19.27;;;;;;;10.23;100.00;102233.06;5280893;28;20046;-71
2021/11/17 14:14:06;;;;;;;27.60;9.02;;;;;;;10.18;100.00;102230.78;5282357;28;20038;-72
2021/11/17 14:16:37;;;;;;;21.17;5.13;;;;;;;10.10;100.00;102242.16;5282301;28;20077;-71
2021/11/17 14:19:08;;;;;;;20.85;4.15;;;;;;;10.12;100.00;102248.25;5284967;28;20053;-71
2021/11/17 14:21:39;;;;;;;21.38;3.58;;;;;;;10.17;100.00;102250.53;5267524;28;20498;-71
2021/11/17 14:24:12;;;;;;;18.77;3.20;;;;;;;10.10;100.00;102257.41;5285978;28;20023;-71
2021/11/17 14:26:46;;;;;;;13.93;2.60;;;;;;;10.06;100.00;102267.53;5286233;28;20030;-71